createdAt,value
2023-03-13T00:00:06.447Z,1.50
2023-03-13T00:05:09.170Z,1.63
2023-03-13T00:10:11.689Z,1.50
2023-03-13T00:15:13.863Z,1.67
2023-03-13T00:20:18.265Z,1.75
2023-03-13T00:25:21.182Z,1.77
2023-03-13T00:30:24.266Z,2.17
2023-03-13T00:35:26.522Z,1.95
2023-03-13T00:40:28.809Z,1.70
2023-03-13T00:45:31.247Z,1.80
2023-03-13T00:50:33.443Z,1.83
2023-03-13T00:55:35.561Z,1.80
2023-03-13T01:00:38.177Z,2.20
2023-03-13T01:05:40.338Z,1.70
2023-03-13T01:10:42.521Z,1.75
2023-03-13T01:15:45.284Z,1.85
2023-03-13T01:20:47.570Z,2.10
2023-03-13T01:25:50.188Z,2.30
2023-03-13T01:30:52.602Z,2.00
2023-03-13T01:36:03.141Z,1.90
2023-03-13T01:41:07.669Z,2.35
2023-03-13T01:46:14.221Z,2.67
2023-03-13T01:51:33.930Z,3.05
2023-03-13T01:57:07.434Z,2.90
2023-03-13T02:02:11.120Z,2.67
2023-03-13T02:07:22.952Z,3.10
2023-03-13T02:12:31.950Z,3.33
2023-03-13T02:17:36.276Z,3.60
2023-03-13T02:23:35.775Z,3.72
2023-03-13T02:28:39.714Z,2.47
2023-03-13T02:33:45.071Z,2.80
2023-03-13T02:38:57.658Z,2.58
2023-03-13T02:43:59.790Z,2.67
2023-03-13T02:49:21.160Z,2.42
2023-03-13T02:54:27.410Z,2.00
2023-03-13T02:59:30.128Z,2.03
2023-03-13T03:04:32.341Z,1.75
2023-03-13T03:09:34.534Z,1.52
2023-03-13T03:14:36.888Z,1.55
2023-03-13T03:19:39.005Z,1.83
2023-03-13T03:24:41.093Z,2.13
2023-03-13T03:29:43.994Z,3.47
2023-03-13T03:34:46.146Z,4.05
2023-03-13T03:39:48.306Z,2.55
2023-03-13T03:44:51.113Z,3.85
2023-03-13T03:49:53.261Z,3.55
2023-03-13T03:54:55.351Z,3.25
2023-03-13T03:59:57.534Z,3.28
2023-03-13T04:04:59.981Z,3.45
2023-03-13T04:10:02.555Z,3.65
2023-03-13T04:15:04.992Z,3.88
2023-03-13T04:20:08.270Z,3.33
2023-03-13T04:25:11.116Z,3.85
2023-03-13T04:30:13.708Z,3.85
2023-03-13T04:35:16.099Z,3.70
2023-03-13T04:40:18.396Z,3.85
2023-03-13T04:45:20.625Z,4.38
2023-03-13T04:50:22.712Z,3.53
2023-03-13T04:55:24.799Z,3.28
2023-03-13T05:00:26.966Z,2.60
2023-03-13T05:05:29.088Z,2.65
2023-03-13T05:10:31.314Z,2.70
2023-03-13T05:15:33.470Z,2.78
2023-03-13T05:20:35.622Z,2.50
2023-03-13T05:25:37.806Z,2.50
2023-03-13T05:30:40.885Z,2.63
2023-03-13T05:35:43.569Z,1.90
2023-03-13T05:40:45.797Z,2.45
2023-03-13T05:45:49.487Z,2.67
2023-03-13T05:50:51.705Z,1.95
2023-03-13T05:55:53.821Z,2.15
2023-03-13T06:00:56.051Z,2.75
2023-03-13T06:05:59.696Z,2.55
2023-03-13T06:11:03.696Z,2.58
2023-03-13T06:16:06.490Z,2.22
2023-03-13T06:21:08.834Z,2.58
2023-03-13T06:26:11.766Z,2.83
2023-03-13T06:31:14.127Z,2.72
2023-03-13T06:36:16.872Z,3.08
2023-03-13T06:41:19.118Z,3.38
2023-03-13T06:46:24.017Z,3.38
2023-03-13T06:51:29.471Z,3.40
2023-03-13T06:56:32.635Z,3.63
2023-03-13T07:01:34.841Z,3.42
2023-03-13T07:06:37.723Z,3.72
2023-03-13T07:11:40.659Z,3.70
2023-03-13T07:16:44.695Z,3.72
2023-03-13T07:21:47.739Z,3.78
2023-03-13T07:27:04.931Z,3.40
2023-03-13T07:32:10.325Z,3.17
2023-03-13T07:37:14.255Z,2.97
2023-03-13T07:42:17.204Z,2.78
2023-03-13T07:47:20.129Z,2.83
2023-03-13T07:52:23.422Z,5.53
2023-03-13T07:57:25.614Z,2.67
2023-03-13T08:02:27.889Z,2.50
2023-03-13T08:07:30.810Z,2.58
2023-03-13T08:12:34.148Z,2.25
2023-03-13T08:17:36.321Z,2.05
2023-03-13T08:22:38.612Z,1.60
2023-03-13T08:27:41.512Z,1.50
2023-03-13T08:32:44.822Z,1.65
2023-03-13T08:37:46.873Z,2.17
2023-03-13T08:42:49.493Z,3.10
2023-03-13T08:47:54.760Z,2.17
2023-03-13T08:52:56.924Z,1.60
2023-03-13T08:57:59.118Z,2.08
2023-03-13T09:03:01.276Z,1.73
2023-03-13T09:08:03.449Z,1.50
2023-03-13T09:13:05.797Z,2.15
2023-03-13T09:18:08.630Z,2.20
2023-03-13T09:23:10.929Z,2.38
2023-03-13T09:28:13.495Z,2.00
2023-03-13T09:33:15.624Z,2.20
2023-03-13T09:38:19.351Z,1.92
2023-03-13T09:43:43.657Z,1.50
2023-03-13T09:48:57.781Z,2.08
2023-03-13T09:54:51.084Z,1.75
2023-03-13T10:00:31.534Z,2.28
2023-03-13T10:05:35.422Z,1.80
2023-03-13T10:10:59.320Z,1.80
2023-03-13T10:16:11.374Z,2.00
2023-03-13T10:21:27.416Z,1.98
2023-03-13T10:26:33.155Z,2.08
2023-03-13T10:31:38.466Z,1.98
2023-03-13T10:36:44.721Z,2.10
2023-03-13T10:41:48.401Z,2.05
2023-03-13T10:46:52.128Z,1.70
2023-03-13T10:52:01.260Z,1.73
2023-03-13T10:57:29.460Z,2.15
2023-03-13T11:02:40.001Z,1.88
2023-03-13T11:07:42.308Z,2.10
2023-03-13T11:12:52.924Z,1.90
2023-03-13T11:18:12.520Z,2.08
2023-03-13T11:23:21.853Z,1.75
2023-03-13T11:28:57.742Z,2.20
2023-03-13T11:34:31.288Z,2.28
2023-03-13T11:39:45.256Z,2.55
2023-03-13T11:44:59.187Z,2.00
2023-03-13T11:50:16.345Z,2.33
2023-03-13T11:55:30.203Z,1.90
2023-03-13T12:00:48.596Z,2.13
2023-03-13T12:05:56.257Z,2.38
2023-03-13T12:11:05.164Z,2.63
2023-03-13T12:16:16.097Z,1.77
2023-03-13T12:21:53.815Z,1.70
2023-03-13T12:27:32.954Z,2.83
2023-03-13T12:32:45.859Z,2.78
2023-03-13T12:37:48.002Z,2.65
2023-03-13T12:43:02.765Z,2.65
2023-03-13T12:48:46.095Z,2.10
2023-03-13T12:54:03.998Z,2.30
2023-03-13T12:59:15.516Z,2.45
2023-03-13T13:04:26.160Z,2.05
2023-03-13T13:09:37.406Z,2.00
2023-03-13T13:14:48.282Z,1.73
2023-03-13T13:19:51.139Z,1.88
2023-03-13T13:25:00.986Z,2.30
2023-03-13T13:30:05.528Z,2.20
2023-03-13T13:35:25.177Z,2.05
2023-03-13T13:40:29.911Z,1.80
2023-03-13T13:45:35.881Z,2.35
2023-03-13T13:50:38.483Z,1.80
2023-03-13T13:55:40.545Z,1.80
2023-03-13T14:00:53.290Z,2.05
2023-03-13T14:06:02.430Z,2.03
2023-03-13T14:11:17.120Z,2.40
2023-03-13T14:16:27.669Z,2.00
2023-03-13T14:21:29.967Z,1.70
2023-03-13T14:26:34.166Z,2.05
2023-03-13T14:31:39.241Z,1.60
2023-03-13T14:36:50.294Z,1.75
2023-03-13T14:41:53.238Z,1.88
2023-03-13T14:46:57.591Z,1.60
2023-03-13T14:52:07.066Z,1.85
2023-03-13T14:57:18.375Z,1.75
2023-03-13T15:02:27.547Z,2.15
2023-03-13T15:08:04.809Z,2.33
2023-03-13T15:13:33.072Z,1.63
2023-03-13T15:18:35.307Z,2.28
2023-03-13T15:23:37.468Z,10.05
2023-03-13T15:28:39.563Z,2.88
2023-03-13T15:33:42.952Z,2.42
2023-03-13T15:38:45.031Z,2.50
2023-03-13T15:43:47.217Z,9.70
2023-03-13T15:48:50.013Z,4.38
2023-03-13T15:53:53.553Z,6.40
2023-03-13T15:58:56.933Z,4.82
2023-03-13T16:04:01.028Z,4.65
2023-03-13T16:09:07.188Z,3.63
2023-03-13T16:14:09.328Z,2.58
2023-03-13T16:19:11.957Z,3.28
2023-03-13T16:24:14.667Z,7.10
2023-03-13T16:29:17.212Z,6.07
2023-03-13T16:34:19.328Z,19.58
2023-03-13T16:39:21.942Z,7.03
2023-03-13T16:44:27.312Z,25.33
2023-03-13T16:49:29.544Z,12.05
2023-03-13T16:54:31.869Z,5.88
2023-03-13T16:59:34.004Z,6.03
2023-03-13T17:04:36.211Z,15.00
2023-03-13T17:09:38.338Z,5.43
2023-03-13T17:14:40.905Z,5.65
2023-03-13T17:19:43.066Z,5.38
2023-03-13T17:24:45.205Z,7.10
2023-03-13T17:29:47.697Z,6.78
2023-03-13T17:34:49.865Z,7.95
2023-03-13T17:39:52.047Z,7.97
2023-03-13T17:44:54.853Z,6.00
2023-03-13T17:49:57.023Z,6.75
2023-03-13T17:54:59.130Z,6.28
2023-03-13T18:00:01.282Z,5.72
2023-03-13T18:05:03.530Z,7.15
2023-03-13T18:10:11.208Z,5.90
2023-03-13T18:15:13.341Z,5.70
2023-03-13T18:20:21.461Z,5.28
2023-03-13T18:25:23.519Z,4.85
2023-03-13T18:30:27.815Z,5.90
2023-03-13T18:35:30.073Z,5.53
2023-03-13T18:40:32.270Z,5.05
2023-03-13T18:45:34.494Z,5.28
2023-03-13T18:50:36.691Z,7.82
2023-03-13T18:55:38.822Z,7.50
2023-03-13T19:00:41.082Z,8.40
2023-03-13T19:05:43.243Z,9.00
2023-03-13T19:10:45.396Z,9.43
2023-03-13T19:15:47.651Z,9.93
2023-03-13T19:20:50.688Z,9.93
2023-03-13T19:25:53.804Z,10.60
2023-03-13T19:30:56.666Z,10.68
2023-03-13T19:35:59.673Z,15.10
2023-03-13T19:41:01.821Z,12.98
2023-03-13T19:46:24.291Z,12.95
2023-03-13T19:51:28.109Z,13.27
2023-03-13T19:56:31.995Z,14.30
2023-03-13T20:01:34.351Z,16.02
2023-03-13T20:06:39.970Z,13.35
2023-03-13T20:11:42.413Z,15.20
2023-03-13T20:16:46.882Z,13.60
2023-03-13T20:21:50.640Z,13.43
2023-03-13T20:26:52.819Z,15.77
2023-03-13T20:31:55.796Z,14.68
2023-03-13T20:37:00.280Z,17.17
2023-03-13T20:42:03.433Z,20.88
2023-03-13T20:47:05.657Z,26.13
2023-03-13T20:52:07.787Z,17.58
2023-03-13T20:57:10.513Z,14.40
2023-03-13T21:02:13.620Z,14.90
2023-03-13T21:07:16.549Z,14.77
2023-03-13T21:12:19.554Z,16.08
2023-03-13T21:17:21.760Z,13.63
2023-03-13T21:22:28.323Z,13.07
2023-03-13T21:27:30.381Z,10.23
2023-03-13T21:32:33.526Z,8.77
2023-03-13T21:37:36.771Z,9.27
2023-03-13T21:42:39.522Z,9.35
2023-03-13T21:47:41.668Z,10.27
2023-03-13T21:52:43.975Z,9.82
2023-03-13T21:57:46.204Z,12.25
2023-03-13T22:02:48.343Z,15.73
2023-03-13T22:07:50.488Z,10.77
2023-03-13T22:12:52.672Z,10.82
2023-03-13T22:17:55.408Z,9.65
2023-03-13T22:22:58.119Z,9.77
2023-03-13T22:28:00.396Z,7.85
2023-03-13T22:33:07.465Z,9.68
2023-03-13T22:38:09.636Z,12.90
2023-03-13T22:43:12.010Z,11.48
2023-03-13T22:48:14.674Z,12.13
2023-03-13T22:53:16.747Z,16.73
2023-03-13T22:58:18.933Z,13.30
2023-03-13T23:03:21.747Z,11.13
2023-03-13T23:08:24.355Z,18.45
2023-03-13T23:13:26.415Z,13.75
2023-03-13T23:18:28.899Z,14.77
2023-03-13T23:23:31.079Z,13.63
2023-03-13T23:28:34.504Z,14.05
2023-03-13T23:33:37.321Z,12.15
2023-03-13T23:38:40.368Z,11.18
2023-03-13T23:43:42.653Z,11.75
2023-03-13T23:48:45.346Z,11.68
2023-03-13T23:53:47.553Z,13.43
2023-03-13T23:58:49.751Z,13.40
